Briefing drone pour Gruissan

Rechercher une autre localisation

Conditions de vol :


Nous sommes le : Vendredi 07 mai 2021
Il est 01:24 UTC (03:24 LT)

Lever de soleil : 04:06 UTC (06:06 LT)
Coucher de soleil : 19:22 UTC (21:22 LT)

Météo

L'essentiel des conditions de vol

VIGILANCE MÉTÉO FRANCE - Aude (11)
Pas de vigilances particulieres
CARTE TEMSI
CARTES DES FRONTS
METAR de LFMU
LFMU 070100Z AUTO 26005KT CAVOK 17/11 Q1015

Date d'émission: 07/05/2021
Heure d'émission: 01:00 UTC
Vent: 260° pour 5 KT (9 km/h)
Visibilité horizontale: > 10 km
Plafond : Plafond et visibilité OK (CAVOK)
Température: 17 °C
Point de rosée: 11 °C
Humidité: 68%
Pression (QNH): 1015 hPa
TAF de LFMU
LFMU 062031Z 0620/0715 CNL

Conditions prévues :

Heure d'émission : Bulletin éffectué le 06 à 20:00 UTC
Prévision : Valide du 06 a 20:00 UTC au 07 a 15:00 UTC
Nuages : à 0ft (0 m)
WEBCAM POUR GRUISSAN

Réglementation

Voler en sécurité

CARTES AERONAUTIQUE 1/500.000
CARTES VAC (LFMU)
SUP AIP




Chargement des AIP...
NOTAM (GRUISSAN + Terrain à proximité / FIR )




Chargement des NOTAMS...
CONTACT PREFECTURE 11


Avertissement : Les données mises à disposition sont indicatives. Oxygène Drone ne pourra être tenu responsable de dégâts causés aux biens et aux personnes.